sensor_id;sensor_type;location;lat;lon;timestamp;temperature;humidity
9776;DHT22;4927;52.472;13.108;2022-12-20T00:04:33;3.70;99.90
9776;DHT22;4927;52.472;13.108;2022-12-20T00:09:39;3.70;99.90
9776;DHT22;4927;52.472;13.108;2022-12-20T00:14:45;3.70;99.90
9776;DHT22;4927;52.472;13.108;2022-12-20T00:19:52;3.60;99.90
9776;DHT22;4927;52.472;13.108;2022-12-20T00:24:58;3.60;99.90
9776;DHT22;4927;52.472;13.108;2022-12-20T00:30:08;3.70;99.90
9776;DHT22;4927;52.472;13.108;2022-12-20T00:35:15;3.80;99.90
9776;DHT22;4927;52.472;13.108;2022-12-20T00:40:21;3.80;99.90
9776;DHT22;4927;52.472;13.108;2022-12-20T00:45:27;3.80;99.90
9776;DHT22;4927;52.472;13.108;2022-12-20T00:50:34;3.80;99.90
9776;DHT22;4927;52.472;13.108;2022-12-20T00:55:41;3.90;99.90
9776;DHT22;4927;52.472;13.108;2022-12-20T01:00:47;3.90;99.90
9776;DHT22;4927;52.472;13.108;2022-12-20T01:05:54;3.90;99.90
9776;DHT22;4927;52.472;13.108;2022-12-20T01:11:01;4.10;99.90
9776;DHT22;4927;52.472;13.108;2022-12-20T01:16:09;4.00;99.90
9776;DHT22;4927;52.472;13.108;2022-12-20T01:21:15;4.00;99.90
9776;DHT22;4927;52.472;13.108;2022-12-20T01:26:21;4.00;99.90
9776;DHT22;4927;52.472;13.108;2022-12-20T01:31:27;4.00;99.90
9776;DHT22;4927;52.472;13.108;2022-12-20T01:36:34;4.00;99.90
9776;DHT22;4927;52.472;13.108;2022-12-20T01:41:40;3.90;99.90
9776;DHT22;4927;52.472;13.108;2022-12-20T01:46:46;3.90;99.90
9776;DHT22;4927;52.472;13.108;2022-12-20T01:51:54;3.80;99.90
9776;DHT22;4927;52.472;13.108;2022-12-20T01:56:58;3.70;99.90
9776;DHT22;4927;52.472;13.108;2022-12-20T02:02:04;3.70;99.90
9776;DHT22;4927;52.472;13.108;2022-12-20T02:07:10;3.60;99.90
9776;DHT22;4927;52.472;13.108;2022-12-20T02:12:19;3.60;99.90
9776;DHT22;4927;52.472;13.108;2022-12-20T02:17:48;3.70;99.90
9776;DHT22;4927;52.472;13.108;2022-12-20T02:23:15;3.70;99.90
9776;DHT22;4927;52.472;13.108;2022-12-20T02:28:30;3.90;99.90
9776;DHT22;4927;52.472;13.108;2022-12-20T02:33:31;4.00;99.90
9776;DHT22;4927;52.472;13.108;2022-12-20T02:38:38;4.00;99.90
9776;DHT22;4927;52.472;13.108;2022-12-20T02:43:43;4.10;99.90
9776;DHT22;4927;52.472;13.108;2022-12-20T02:48:55;4.10;99.90
9776;DHT22;4927;52.472;13.108;2022-12-20T02:54:00;4.10;99.90
9776;DHT22;4927;52.472;13.108;2022-12-20T02:59:10;4.10;99.90
9776;DHT22;4927;52.472;13.108;2022-12-20T03:04:15;4.10;99.90
9776;DHT22;4927;52.472;13.108;2022-12-20T03:09:21;4.20;99.90
9776;DHT22;4927;52.472;13.108;2022-12-20T03:14:27;4.20;99.90
9776;DHT22;4927;52.472;13.108;2022-12-20T03:19:34;4.20;99.90
9776;DHT22;4927;52.472;13.108;2022-12-20T03:24:40;4.30;99.90
9776;DHT22;4927;52.472;13.108;2022-12-20T03:29:46;4.40;99.90
9776;DHT22;4927;52.472;13.108;2022-12-20T03:34:52;4.40;99.90
9776;DHT22;4927;52.472;13.108;2022-12-20T03:39:59;4.30;99.90
9776;DHT22;4927;52.472;13.108;2022-12-20T03:45:06;4.30;99.90
9776;DHT22;4927;52.472;13.108;2022-12-20T03:50:13;4.40;99.90
9776;DHT22;4927;52.472;13.108;2022-12-20T03:55:20;4.30;99.90
9776;DHT22;4927;52.472;13.108;2022-12-20T04:00:27;4.30;99.90
9776;DHT22;4927;52.472;13.108;2022-12-20T04:05:33;4.30;99.90
9776;DHT22;4927;52.472;13.108;2022-12-20T04:10:39;4.30;99.90
9776;DHT22;4927;52.472;13.108;2022-12-20T04:15:52;4.30;99.90
9776;DHT22;4927;52.472;13.108;2022-12-20T04:20:59;4.20;99.90
9776;DHT22;4927;52.472;13.108;2022-12-20T04:26:05;4.30;99.90
9776;DHT22;4927;52.472;13.108;2022-12-20T04:31:11;4.20;99.90
9776;DHT22;4927;52.472;13.108;2022-12-20T04:36:18;4.20;99.90
9776;DHT22;4927;52.472;13.108;2022-12-20T04:41:24;4.20;99.90
9776;DHT22;4927;52.472;13.108;2022-12-20T04:46:30;4.30;99.90
9776;DHT22;4927;52.472;13.108;2022-12-20T04:51:36;4.20;99.90
9776;DHT22;4927;52.472;13.108;2022-12-20T04:56:43;4.20;99.90
9776;DHT22;4927;52.472;13.108;2022-12-20T05:01:49;4.20;99.90
9776;DHT22;4927;52.472;13.108;2022-12-20T05:06:55;4.20;99.90
9776;DHT22;4927;52.472;13.108;2022-12-20T05:12:02;4.30;99.90
9776;DHT22;4927;52.472;13.108;2022-12-20T05:17:08;4.30;99.90
9776;DHT22;4927;52.472;13.108;2022-12-20T05:22:15;4.30;99.90
9776;DHT22;4927;52.472;13.108;2022-12-20T05:27:27;4.30;99.90
9776;DHT22;4927;52.472;13.108;2022-12-20T05:32:34;4.30;99.90
9776;DHT22;4927;52.472;13.108;2022-12-20T05:37:40;4.30;99.90
9776;DHT22;4927;52.472;13.108;2022-12-20T05:42:46;4.40;99.90
9776;DHT22;4927;52.472;13.108;2022-12-20T05:47:53;4.40;99.90
9776;DHT22;4927;52.472;13.108;2022-12-20T05:52:59;4.40;99.90
9776;DHT22;4927;52.472;13.108;2022-12-20T05:58:05;4.40;99.90
9776;DHT22;4927;52.472;13.108;2022-12-20T06:03:15;4.50;99.90
9776;DHT22;4927;52.472;13.108;2022-12-20T06:08:22;4.50;99.90
9776;DHT22;4927;52.472;13.108;2022-12-20T06:13:28;4.60;99.90
9776;DHT22;4927;52.472;13.108;2022-12-20T06:18:34;4.50;99.90
9776;DHT22;4927;52.472;13.108;2022-12-20T06:23:40;4.50;99.90
9776;DHT22;4927;52.472;13.108;2022-12-20T06:28:48;4.60;99.90
9776;DHT22;4927;52.472;13.108;2022-12-20T06:33:54;4.60;99.90
9776;DHT22;4927;52.472;13.108;2022-12-20T06:39:01;4.60;99.90
9776;DHT22;4927;52.472;13.108;2022-12-20T06:44:08;4.60;99.90
9776;DHT22;4927;52.472;13.108;2022-12-20T06:49:14;4.60;99.90
9776;DHT22;4927;52.472;13.108;2022-12-20T06:54:20;4.70;99.90
9776;DHT22;4927;52.472;13.108;2022-12-20T06:59:27;4.60;99.90
9776;DHT22;4927;52.472;13.108;2022-12-20T07:04:33;4.60;99.90
9776;DHT22;4927;52.472;13.108;2022-12-20T07:09:39;4.60;99.90
9776;DHT22;4927;52.472;13.108;2022-12-20T07:14:45;4.60;99.90
9776;DHT22;4927;52.472;13.108;2022-12-20T07:19:55;4.60;99.90
9776;DHT22;4927;52.472;13.108;2022-12-20T07:25:01;4.70;99.90
9776;DHT22;4927;52.472;13.108;2022-12-20T07:30:12;4.70;99.90
9776;DHT22;4927;52.472;13.108;2022-12-20T07:35:18;4.70;99.90
9776;DHT22;4927;52.472;13.108;2022-12-20T07:40:28;4.80;99.90
9776;DHT22;4927;52.472;13.108;2022-12-20T07:45:39;4.80;99.90
9776;DHT22;4927;52.472;13.108;2022-12-20T07:50:51;4.80;99.90
9776;DHT22;4927;52.472;13.108;2022-12-20T07:56:01;4.80;99.90
9776;DHT22;4927;52.472;13.108;2022-12-20T08:01:11;4.80;99.90
9776;DHT22;4927;52.472;13.108;2022-12-20T08:06:18;4.80;99.90
9776;DHT22;4927;52.472;13.108;2022-12-20T08:11:26;4.80;99.90
9776;DHT22;4927;52.472;13.108;2022-12-20T08:16:35;4.80;99.90
9776;DHT22;4927;52.472;13.108;2022-12-20T08:21:46;4.80;99.90
9776;DHT22;4927;52.472;13.108;2022-12-20T08:26:52;4.80;99.90
9776;DHT22;4927;52.472;13.108;2022-12-20T08:31:59;4.90;99.90
9776;DHT22;4927;52.472;13.108;2022-12-20T08:37:10;4.80;99.90
9776;DHT22;4927;52.472;13.108;2022-12-20T08:42:16;4.90;99.90
9776;DHT22;4927;52.472;13.108;2022-12-20T08:47:28;5.00;99.90
9776;DHT22;4927;52.472;13.108;2022-12-20T08:52:36;5.00;99.90
9776;DHT22;4927;52.472;13.108;2022-12-20T08:57:47;5.00;99.90
9776;DHT22;4927;52.472;13.108;2022-12-20T09:02:53;5.10;99.90
9776;DHT22;4927;52.472;13.108;2022-12-20T09:07:59;5.20;99.90
9776;DHT22;4927;52.472;13.108;2022-12-20T09:13:06;5.30;99.90
9776;DHT22;4927;52.472;13.108;2022-12-20T09:18:12;5.30;99.90
9776;DHT22;4927;52.472;13.108;2022-12-20T09:23:19;5.40;99.90
9776;DHT22;4927;52.472;13.108;2022-12-20T09:28:25;5.50;99.90
9776;DHT22;4927;52.472;13.108;2022-12-20T09:33:35;5.70;99.90
9776;DHT22;4927;52.472;13.108;2022-12-20T09:38:46;5.80;99.90
9776;DHT22;4927;52.472;13.108;2022-12-20T09:43:52;5.90;99.90
9776;DHT22;4927;52.472;13.108;2022-12-20T09:49:02;5.90;99.90
9776;DHT22;4927;52.472;13.108;2022-12-20T09:54:21;5.90;99.90
9776;DHT22;4927;52.472;13.108;2022-12-20T09:59:28;6.00;99.90
9776;DHT22;4927;52.472;13.108;2022-12-20T10:04:34;6.10;99.90
9776;DHT22;4927;52.472;13.108;2022-12-20T10:20:40;6.50;99.90
9776;DHT22;4927;52.472;13.108;2022-12-20T10:25:42;6.20;99.90
9776;DHT22;4927;52.472;13.108;2022-12-20T10:30:49;6.20;99.90
9776;DHT22;4927;52.472;13.108;2022-12-20T10:35:55;6.30;99.90
9776;DHT22;4927;52.472;13.108;2022-12-20T10:41:02;6.30;99.90
9776;DHT22;4927;52.472;13.108;2022-12-20T10:46:08;6.40;99.90
9776;DHT22;4927;52.472;13.108;2022-12-20T10:51:16;6.60;99.90
9776;DHT22;4927;52.472;13.108;2022-12-20T10:56:25;6.60;99.90
9776;DHT22;4927;52.472;13.108;2022-12-20T11:01:34;6.70;99.90
9776;DHT22;4927;52.472;13.108;2022-12-20T11:06:41;6.70;99.90
9776;DHT22;4927;52.472;13.108;2022-12-20T11:12:05;6.70;99.90
9776;DHT22;4927;52.472;13.108;2022-12-20T11:17:31;6.80;99.90
9776;DHT22;4927;52.472;13.108;2022-12-20T11:22:43;6.90;99.90
9776;DHT22;4927;52.472;13.108;2022-12-20T11:33:13;7.00;99.90
9776;DHT22;4927;52.472;13.108;2022-12-20T11:38:28;7.20;99.90
9776;DHT22;4927;52.472;13.108;2022-12-20T11:54:22;7.50;99.90
9776;DHT22;4927;52.472;13.108;2022-12-20T11:59:45;7.40;99.90
9776;DHT22;4927;52.472;13.108;2022-12-20T12:05:06;7.50;99.90
9776;DHT22;4927;52.472;13.108;2022-12-20T12:10:13;7.60;99.90
9776;DHT22;4927;52.472;13.108;2022-12-20T12:15:27;7.80;99.90
9776;DHT22;4927;52.472;13.108;2022-12-20T12:25:55;7.70;99.90
9776;DHT22;4927;52.472;13.108;2022-12-20T12:31:03;7.70;99.90
9776;DHT22;4927;52.472;13.108;2022-12-20T12:36:17;7.70;99.90
9776;DHT22;4927;52.472;13.108;2022-12-20T12:46:33;7.70;99.90
9776;DHT22;4927;52.472;13.108;2022-12-20T12:51:39;7.80;99.90
9776;DHT22;4927;52.472;13.108;2022-12-20T12:56:45;7.80;99.90
9776;DHT22;4927;52.472;13.108;2022-12-20T13:01:52;7.90;99.90
9776;DHT22;4927;52.472;13.108;2022-12-20T13:07:00;7.80;99.90
9776;DHT22;4927;52.472;13.108;2022-12-20T13:17:44;7.70;99.90
9776;DHT22;4927;52.472;13.108;2022-12-20T13:38:54;7.30;99.90
9776;DHT22;4927;52.472;13.108;2022-12-20T13:55:22;7.10;99.90
9776;DHT22;4927;52.472;13.108;2022-12-20T14:00:23;7.00;99.90
9776;DHT22;4927;52.472;13.108;2022-12-20T14:05:33;7.00;99.90
9776;DHT22;4927;52.472;13.108;2022-12-20T14:10:43;6.90;99.90
9776;DHT22;4927;52.472;13.108;2022-12-20T14:15:49;6.80;99.90
9776;DHT22;4927;52.472;13.108;2022-12-20T14:20:57;6.80;99.90
9776;DHT22;4927;52.472;13.108;2022-12-20T14:26:02;6.80;99.90
9776;DHT22;4927;52.472;13.108;2022-12-20T14:31:23;6.80;99.90
9776;DHT22;4927;52.472;13.108;2022-12-20T14:36:29;6.70;99.90
9776;DHT22;4927;52.472;13.108;2022-12-20T14:41:37;6.70;99.90
9776;DHT22;4927;52.472;13.108;2022-12-20T14:46:49;6.70;99.90
9776;DHT22;4927;52.472;13.108;2022-12-20T14:52:06;6.60;99.90
9776;DHT22;4927;52.472;13.108;2022-12-20T14:57:21;6.70;99.90
9776;DHT22;4927;52.472;13.108;2022-12-20T15:02:32;6.50;99.90
9776;DHT22;4927;52.472;13.108;2022-12-20T15:07:34;6.50;99.90
9776;DHT22;4927;52.472;13.108;2022-12-20T15:12:44;6.50;99.90
9776;DHT22;4927;52.472;13.108;2022-12-20T15:17:54;6.50;99.90
9776;DHT22;4927;52.472;13.108;2022-12-20T15:23:00;6.40;99.90
9776;DHT22;4927;52.472;13.108;2022-12-20T15:28:16;6.40;99.90
9776;DHT22;4927;52.472;13.108;2022-12-20T15:33:27;6.30;99.90
9776;DHT22;4927;52.472;13.108;2022-12-20T15:38:33;6.30;99.90
9776;DHT22;4927;52.472;13.108;2022-12-20T15:43:44;6.30;99.90
9776;DHT22;4927;52.472;13.108;2022-12-20T15:48:51;6.20;99.90
9776;DHT22;4927;52.472;13.108;2022-12-20T15:53:57;6.10;99.90
9776;DHT22;4927;52.472;13.108;2022-12-20T15:59:03;6.10;99.90
9776;DHT22;4927;52.472;13.108;2022-12-20T16:04:12;6.10;99.90
9776;DHT22;4927;52.472;13.108;2022-12-20T16:09:17;6.10;99.90
9776;DHT22;4927;52.472;13.108;2022-12-20T16:14:27;6.10;99.90
9776;DHT22;4927;52.472;13.108;2022-12-20T16:19:39;6.10;99.90
9776;DHT22;4927;52.472;13.108;2022-12-20T16:24:45;6.00;99.90
9776;DHT22;4927;52.472;13.108;2022-12-20T16:29:51;6.00;99.90
9776;DHT22;4927;52.472;13.108;2022-12-20T16:35:01;6.00;99.90
9776;DHT22;4927;52.472;13.108;2022-12-20T16:40:09;5.90;99.90
9776;DHT22;4927;52.472;13.108;2022-12-20T16:45:22;5.80;99.90
9776;DHT22;4927;52.472;13.108;2022-12-20T16:50:31;5.80;99.90
9776;DHT22;4927;52.472;13.108;2022-12-20T16:55:41;5.80;99.90
9776;DHT22;4927;52.472;13.108;2022-12-20T17:00:51;5.80;99.90
9776;DHT22;4927;52.472;13.108;2022-12-20T17:06:02;5.70;99.90
9776;DHT22;4927;52.472;13.108;2022-12-20T17:11:11;5.70;99.90
9776;DHT22;4927;52.472;13.108;2022-12-20T17:16:15;5.70;99.90
9776;DHT22;4927;52.472;13.108;2022-12-20T17:21:27;5.80;99.90
9776;DHT22;4927;52.472;13.108;2022-12-20T17:26:34;5.80;99.90
9776;DHT22;4927;52.472;13.108;2022-12-20T17:31:41;5.80;99.90
9776;DHT22;4927;52.472;13.108;2022-12-20T17:36:51;5.80;99.90
9776;DHT22;4927;52.472;13.108;2022-12-20T17:42:01;5.80;99.90
9776;DHT22;4927;52.472;13.108;2022-12-20T17:47:11;5.80;99.90
9776;DHT22;4927;52.472;13.108;2022-12-20T17:52:18;5.90;99.90
9776;DHT22;4927;52.472;13.108;2022-12-20T17:57:29;5.90;99.90
9776;DHT22;4927;52.472;13.108;2022-12-20T18:02:35;5.90;99.90
9776;DHT22;4927;52.472;13.108;2022-12-20T18:07:42;5.90;99.90
9776;DHT22;4927;52.472;13.108;2022-12-20T18:12:52;5.90;99.90
9776;DHT22;4927;52.472;13.108;2022-12-20T18:18:03;6.10;99.90
9776;DHT22;4927;52.472;13.108;2022-12-20T18:23:13;5.90;99.90
9776;DHT22;4927;52.472;13.108;2022-12-20T18:28:24;5.90;99.90
9776;DHT22;4927;52.472;13.108;2022-12-20T18:33:34;5.80;99.90
9776;DHT22;4927;52.472;13.108;2022-12-20T18:38:45;5.80;99.90
9776;DHT22;4927;52.472;13.108;2022-12-20T18:43:57;5.70;99.90
9776;DHT22;4927;52.472;13.108;2022-12-20T18:49:02;5.70;99.90
9776;DHT22;4927;52.472;13.108;2022-12-20T18:54:09;5.80;99.90
9776;DHT22;4927;52.472;13.108;2022-12-20T18:59:18;5.80;99.90
9776;DHT22;4927;52.472;13.108;2022-12-20T19:04:29;5.80;99.90
9776;DHT22;4927;52.472;13.108;2022-12-20T19:09:36;5.80;99.90
9776;DHT22;4927;52.472;13.108;2022-12-20T19:14:43;5.80;99.90
9776;DHT22;4927;52.472;13.108;2022-12-20T19:19:54;5.80;99.90
9776;DHT22;4927;52.472;13.108;2022-12-20T19:25:04;5.80;99.90
9776;DHT22;4927;52.472;13.108;2022-12-20T19:30:12;5.80;99.90
9776;DHT22;4927;52.472;13.108;2022-12-20T19:35:18;5.80;99.90
9776;DHT22;4927;52.472;13.108;2022-12-20T19:40:24;5.80;99.90
9776;DHT22;4927;52.472;13.108;2022-12-20T19:45:36;5.80;99.90
9776;DHT22;4927;52.472;13.108;2022-12-20T19:50:46;5.90;99.90
9776;DHT22;4927;52.472;13.108;2022-12-20T19:55:56;5.90;99.90
9776;DHT22;4927;52.472;13.108;2022-12-20T20:01:07;5.80;99.90
9776;DHT22;4927;52.472;13.108;2022-12-20T20:06:13;5.80;99.90
9776;DHT22;4927;52.472;13.108;2022-12-20T20:11:23;5.80;99.90
9776;DHT22;4927;52.472;13.108;2022-12-20T20:16:34;5.70;99.90
9776;DHT22;4927;52.472;13.108;2022-12-20T20:21:44;5.70;99.90
9776;DHT22;4927;52.472;13.108;2022-12-20T20:26:51;5.60;99.90
9776;DHT22;4927;52.472;13.108;2022-12-20T20:31:57;5.60;99.90
9776;DHT22;4927;52.472;13.108;2022-12-20T20:37:03;5.60;99.90
9776;DHT22;4927;52.472;13.108;2022-12-20T20:42:07;5.60;99.90
9776;DHT22;4927;52.472;13.108;2022-12-20T20:47:12;5.50;99.90
9776;DHT22;4927;52.472;13.108;2022-12-20T20:52:18;5.40;99.90
9776;DHT22;4927;52.472;13.108;2022-12-20T20:57:24;5.40;99.90
9776;DHT22;4927;52.472;13.108;2022-12-20T21:02:30;5.40;99.90
9776;DHT22;4927;52.472;13.108;2022-12-20T21:07:37;5.40;99.90
9776;DHT22;4927;52.472;13.108;2022-12-20T21:12:48;5.40;99.90
9776;DHT22;4927;52.472;13.108;2022-12-20T21:17:58;5.30;99.90
9776;DHT22;4927;52.472;13.108;2022-12-20T21:23:04;5.30;99.90
9776;DHT22;4927;52.472;13.108;2022-12-20T21:28:11;5.30;99.90
9776;DHT22;4927;52.472;13.108;2022-12-20T21:33:21;5.30;99.90
9776;DHT22;4927;52.472;13.108;2022-12-20T21:38:27;5.20;99.90
9776;DHT22;4927;52.472;13.108;2022-12-20T21:43:33;5.30;99.90
9776;DHT22;4927;52.472;13.108;2022-12-20T21:48:40;5.30;99.90
9776;DHT22;4927;52.472;13.108;2022-12-20T21:53:48;5.20;99.90
9776;DHT22;4927;52.472;13.108;2022-12-20T21:58:53;5.20;99.90
9776;DHT22;4927;52.472;13.108;2022-12-20T22:04:00;5.20;99.90
9776;DHT22;4927;52.472;13.108;2022-12-20T22:09:10;5.10;99.90
9776;DHT22;4927;52.472;13.108;2022-12-20T22:14:16;5.10;99.90
9776;DHT22;4927;52.472;13.108;2022-12-20T22:20:33;5.10;99.90
9776;DHT22;4927;52.472;13.108;2022-12-20T22:25:49;5.10;99.90
9776;DHT22;4927;52.472;13.108;2022-12-20T22:30:55;5.10;99.90
9776;DHT22;4927;52.472;13.108;2022-12-20T22:36:09;5.10;99.90
9776;DHT22;4927;52.472;13.108;2022-12-20T22:41:16;5.10;99.90
9776;DHT22;4927;52.472;13.108;2022-12-20T22:46:21;5.10;99.90
9776;DHT22;4927;52.472;13.108;2022-12-20T22:51:27;5.00;99.90
9776;DHT22;4927;52.472;13.108;2022-12-20T22:56:34;5.00;99.90
9776;DHT22;4927;52.472;13.108;2022-12-20T23:01:41;5.00;99.90
9776;DHT22;4927;52.472;13.108;2022-12-20T23:06:47;4.90;99.90
9776;DHT22;4927;52.472;13.108;2022-12-20T23:11:53;4.90;99.90
9776;DHT22;4927;52.472;13.108;2022-12-20T23:17:06;4.80;99.90
9776;DHT22;4927;52.472;13.108;2022-12-20T23:22:11;4.90;99.90
9776;DHT22;4927;52.472;13.108;2022-12-20T23:27:35;4.90;99.90
9776;DHT22;4927;52.472;13.108;2022-12-20T23:32:41;4.80;99.90
9776;DHT22;4927;52.472;13.108;2022-12-20T23:37:49;4.80;99.90
9776;DHT22;4927;52.472;13.108;2022-12-20T23:42:55;4.80;99.90
9776;DHT22;4927;52.472;13.108;2022-12-20T23:48:03;4.70;99.90
9776;DHT22;4927;52.472;13.108;2022-12-20T23:53:09;4.70;99.90
9776;DHT22;4927;52.472;13.108;2022-12-20T23:58:16;4.60;99.90
